Terminal Aerodrome Forecast
Issued by NWS

Home | Current Version | Previous Version | Text Only | Print | Product List | Glossary On
Versions: 1 2 3 4 5 6 7 8 9 10 11 12 13 14
000
FTUS46 KLOX 250539
TAFBUR
TAF
KBUR 250539Z 2506/2606 17006KT P6SM SCT040
     FM251000 17006KT P6SM OVC025
     FM251800 17008KT P6SM SCT030 OVC040
     FM252100 19010KT P6SM BKN050
     FM260300 VRB03KT P6SM SCT050=

USA.gov is the U.S. government's official web portal to all federal, state and local government web resources and services.